createdAt,value
2022-09-23T00:01:07.742Z,17.90
2022-09-23T00:03:37.287Z,15.85
2022-09-23T00:06:07.283Z,16.75
2022-09-23T00:08:35.177Z,16.42
2022-09-23T00:11:17.195Z,16.10
2022-09-23T00:13:46.386Z,18.30
2022-09-23T00:16:16.083Z,18.08
2022-09-23T00:18:43.588Z,17.30
2022-09-23T00:21:12.734Z,16.65
2022-09-23T00:23:40.793Z,16.85
2022-09-23T00:26:09.694Z,16.25
2022-09-23T00:28:37.134Z,16.00
2022-09-23T00:31:12.542Z,15.35
2022-09-23T00:33:40.892Z,15.85
2022-09-23T00:36:11.565Z,17.10
2022-09-23T00:38:39.294Z,15.05
2022-09-23T00:41:06.555Z,13.20
2022-09-23T00:43:54.542Z,16.20
2022-09-23T00:46:36.389Z,14.18
2022-09-23T00:49:07.499Z,14.10
2022-09-23T00:51:39.125Z,13.55
2022-09-23T00:54:06.769Z,13.93
2022-09-23T00:56:34.839Z,15.23
2022-09-23T00:59:02.197Z,14.40
2022-09-23T01:01:29.946Z,13.32
2022-09-23T01:03:57.687Z,15.20
2022-09-23T01:06:25.206Z,13.38
2022-09-23T01:08:52.844Z,14.25
2022-09-23T01:11:35.136Z,14.93
2022-09-23T01:14:07.986Z,13.93
2022-09-23T01:17:05.892Z,13.73
2022-09-23T01:19:59.085Z,15.20
2022-09-23T01:22:54.975Z,13.75
2022-09-23T01:25:47.319Z,15.30
2022-09-23T01:31:12.712Z,13.88
2022-09-23T01:34:02.746Z,14.20
2022-09-23T01:36:43.315Z,13.05
2022-09-23T01:39:10.832Z,14.35
2022-09-23T01:42:17.383Z,15.38
2022-09-23T01:44:51.717Z,14.27
2022-09-23T01:47:25.644Z,15.73
2022-09-23T01:50:32.953Z,13.93
2022-09-23T01:53:05.113Z,14.98
2022-09-23T01:55:34.547Z,12.90
2022-09-23T01:58:12.425Z,14.35
2022-09-23T02:00:43.834Z,13.95
2022-09-23T02:03:50.125Z,12.98
2022-09-23T02:06:22.323Z,13.30
2022-09-23T02:09:00.399Z,13.50
2022-09-23T02:11:27.823Z,13.88
2022-09-23T02:13:59.245Z,13.60
2022-09-23T02:16:47.723Z,13.02
2022-09-23T02:19:37.784Z,11.90
2022-09-23T02:22:23.555Z,12.68
2022-09-23T02:24:50.775Z,13.68
2022-09-23T02:27:26.186Z,13.63
2022-09-23T02:30:12.886Z,14.27
2022-09-23T02:32:58.410Z,14.73
2022-09-23T02:35:33.206Z,13.80
2022-09-23T02:38:21.886Z,14.10
2022-09-23T02:40:54.585Z,15.18
2022-09-23T02:43:52.430Z,14.70
2022-09-23T02:46:20.486Z,14.60
2022-09-23T02:49:23.537Z,12.85
2022-09-23T02:51:51.165Z,13.43
2022-09-23T02:54:23.266Z,12.75
2022-09-23T02:56:50.377Z,13.80
2022-09-23T02:59:19.594Z,13.02
2022-09-23T03:02:03.760Z,11.82
2022-09-23T03:05:08.416Z,13.07
2022-09-23T03:08:13.014Z,14.65
2022-09-23T03:10:53.704Z,12.07
2022-09-23T03:13:39.652Z,11.07
2022-09-23T03:16:15.149Z,11.23
2022-09-23T03:18:52.554Z,10.82
2022-09-23T03:21:45.068Z,13.25
2022-09-23T03:24:14.481Z,13.65
2022-09-23T03:26:44.648Z,14.48
2022-09-23T03:29:12.195Z,12.73
2022-09-23T03:31:41.209Z,13.15
2022-09-23T03:34:23.415Z,12.73
2022-09-23T03:37:01.997Z,12.90
2022-09-23T03:39:34.514Z,12.73
2022-09-23T03:42:12.842Z,12.88
2022-09-23T03:44:46.231Z,12.45
2022-09-23T03:47:14.910Z,11.65
2022-09-23T03:49:48.509Z,11.68
2022-09-23T03:52:20.193Z,11.00
2022-09-23T03:54:47.646Z,10.98
2022-09-23T03:57:14.904Z,10.25
2022-09-23T03:59:41.831Z,10.73
2022-09-23T04:02:09.505Z,10.45
2022-09-23T04:04:37.625Z,11.23
2022-09-23T04:07:05.055Z,11.98
2022-09-23T04:09:32.295Z,11.50
2022-09-23T04:11:59.244Z,11.85
2022-09-23T04:14:26.174Z,11.90
2022-09-23T04:16:53.175Z,13.20
2022-09-23T04:19:20.208Z,12.68
2022-09-23T04:21:47.318Z,13.63
2022-09-23T04:24:14.954Z,14.00
2022-09-23T04:26:42.124Z,14.10
2022-09-23T04:29:11.084Z,13.38
2022-09-23T04:31:38.327Z,14.23
2022-09-23T04:34:05.426Z,14.57
2022-09-23T04:36:32.979Z,15.73
2022-09-23T04:38:59.911Z,16.45
2022-09-23T04:41:27.091Z,16.13
2022-09-23T04:43:54.052Z,14.77
2022-09-23T04:46:21.057Z,18.63
2022-09-23T04:48:47.994Z,16.98
2022-09-23T04:51:20.965Z,17.27
2022-09-23T04:53:49.874Z,16.48
2022-09-23T04:56:22.504Z,14.73
2022-09-23T04:58:49.724Z,14.75
2022-09-23T05:01:16.687Z,15.00
2022-09-23T05:03:44.579Z,15.93
2022-09-23T05:06:14.008Z,13.10
2022-09-23T05:08:46.985Z,13.63
2022-09-23T05:11:14.017Z,13.23
2022-09-23T05:13:40.930Z,26.13
2022-09-23T05:16:12.128Z,14.65
2022-09-23T05:18:43.993Z,12.50
2022-09-23T05:21:12.247Z,12.07
2022-09-23T05:23:40.706Z,11.65
2022-09-23T05:26:10.166Z,10.85
2022-09-23T05:28:39.414Z,10.98
2022-09-23T05:31:20.542Z,10.40
2022-09-23T05:33:57.442Z,10.60
2022-09-23T05:36:25.558Z,10.10
2022-09-23T05:38:52.725Z,9.35
2022-09-23T05:41:23.227Z,9.75
2022-09-23T05:43:54.233Z,10.98
2022-09-23T05:46:28.126Z,11.60
2022-09-23T05:49:02.615Z,11.65
2022-09-23T05:51:31.513Z,13.07
2022-09-23T05:53:59.823Z,13.15
2022-09-23T05:56:28.153Z,12.00
2022-09-23T05:58:57.641Z,14.05
2022-09-23T06:01:27.161Z,19.60
2022-09-23T06:03:55.915Z,13.18
2022-09-23T06:06:28.981Z,20.52
2022-09-23T06:08:56.542Z,13.82
2022-09-23T06:11:23.872Z,13.00
2022-09-23T06:13:55.043Z,11.50
2022-09-23T06:16:22.320Z,10.70
2022-09-23T06:18:49.762Z,10.23
2022-09-23T06:21:17.739Z,9.70
2022-09-23T06:23:45.791Z,9.10
2022-09-23T06:26:14.729Z,8.18
2022-09-23T06:28:43.170Z,8.57
2022-09-23T06:31:15.521Z,6.45
2022-09-23T06:33:46.122Z,6.93
2022-09-23T06:36:23.331Z,5.80
2022-09-23T06:39:02.422Z,6.30
2022-09-23T06:41:30.142Z,5.35
2022-09-23T06:43:58.508Z,5.05
2022-09-23T06:46:25.739Z,4.40
2022-09-23T06:48:52.840Z,4.28
2022-09-23T06:51:19.997Z,3.85
2022-09-23T06:53:50.572Z,3.78
2022-09-23T06:56:19.873Z,3.90
2022-09-23T06:58:47.333Z,3.88
2022-09-23T07:01:17.274Z,4.22
2022-09-23T07:03:45.875Z,4.28
2022-09-23T07:06:12.992Z,3.78
2022-09-23T07:08:43.433Z,3.60
2022-09-23T07:11:12.452Z,2.90
2022-09-23T07:13:41.276Z,2.75
2022-09-23T07:16:09.211Z,2.78
2022-09-23T07:18:37.699Z,2.15
2022-09-23T07:21:16.326Z,2.33
2022-09-23T07:23:44.547Z,2.47
2022-09-23T07:26:11.822Z,2.60
2022-09-23T07:28:39.384Z,2.30
2022-09-23T07:31:08.632Z,2.40
2022-09-23T07:33:37.206Z,1.33
2022-09-23T07:36:09.242Z,1.67
2022-09-23T07:38:40.398Z,1.27
2022-09-23T07:41:11.923Z,1.63
2022-09-23T07:43:41.002Z,1.35
2022-09-23T07:46:11.154Z,1.15
2022-09-23T07:48:38.622Z,1.20
2022-09-23T07:51:36.035Z,1.20
2022-09-23T07:54:08.690Z,1.10
2022-09-23T07:56:37.301Z,1.38
2022-09-23T07:59:09.384Z,1.58
2022-09-23T08:01:41.566Z,1.20
2022-09-23T08:04:12.582Z,1.05
2022-09-23T08:06:50.515Z,1.55
2022-09-23T08:09:19.031Z,1.05
2022-09-23T08:11:46.592Z,1.05
2022-09-23T08:14:15.501Z,1.40
2022-09-23T08:16:44.892Z,1.05
2022-09-23T08:19:12.772Z,1.80
2022-09-23T08:21:40.534Z,2.03
2022-09-23T08:24:08.793Z,2.17
2022-09-23T08:26:35.803Z,1.20
2022-09-23T08:29:02.752Z,1.30
2022-09-23T08:31:29.960Z,1.40
2022-09-23T08:33:58.114Z,1.52
2022-09-23T08:36:26.115Z,1.38
2022-09-23T08:38:53.596Z,1.10
2022-09-23T08:41:39.392Z,1.15
2022-09-23T08:44:19.433Z,1.15
2022-09-23T08:47:10.688Z,1.00
2022-09-23T08:50:00.881Z,0.70
2022-09-23T08:52:47.274Z,0.80
2022-09-23T08:55:15.511Z,1.02
2022-09-23T08:58:25.976Z,0.90
2022-09-23T09:01:29.572Z,0.80
2022-09-23T09:03:58.961Z,0.90
2022-09-23T09:06:52.925Z,0.88
2022-09-23T09:09:30.902Z,0.60
2022-09-23T09:12:25.753Z,0.30
2022-09-23T09:15:13.977Z,0.40
2022-09-23T09:18:06.556Z,0.50
2022-09-23T09:20:59.113Z,0.73
2022-09-23T09:24:04.377Z,0.70
2022-09-23T09:26:35.395Z,0.60
2022-09-23T09:29:34.302Z,0.40
2022-09-23T09:32:15.192Z,0.40
2022-09-23T09:34:51.681Z,0.68
2022-09-23T09:37:21.112Z,0.57
2022-09-23T09:39:48.062Z,1.25
2022-09-23T09:42:27.642Z,0.75
2022-09-23T09:44:59.293Z,0.70
2022-09-23T09:47:32.602Z,0.82
2022-09-23T09:50:11.949Z,0.75
2022-09-23T09:52:43.129Z,0.55
2022-09-23T09:55:12.907Z,0.40
2022-09-23T09:57:49.911Z,0.80
2022-09-23T10:00:39.133Z,0.47
2022-09-23T10:03:23.478Z,0.88
2022-09-23T10:05:52.401Z,0.70
2022-09-23T10:08:35.115Z,0.80
2022-09-23T10:11:11.876Z,0.63
2022-09-23T10:13:39.130Z,1.08
2022-09-23T10:16:06.755Z,0.75
2022-09-23T10:18:37.621Z,0.68
2022-09-23T10:21:10.841Z,0.73
2022-09-23T10:23:44.381Z,0.40
2022-09-23T10:26:13.011Z,0.40
2022-09-23T10:28:50.402Z,0.50
2022-09-23T10:31:26.712Z,0.60
2022-09-23T10:33:57.484Z,0.70
2022-09-23T10:36:24.982Z,1.40
2022-09-23T10:39:23.116Z,1.35
2022-09-23T10:42:19.359Z,0.63
2022-09-23T10:45:31.600Z,0.82
2022-09-23T10:48:01.180Z,0.30
2022-09-23T10:50:35.007Z,0.50
2022-09-23T10:53:15.442Z,0.30
2022-09-23T10:56:01.121Z,0.60
2022-09-23T10:58:33.543Z,0.40
2022-09-23T11:01:26.992Z,0.50
2022-09-23T11:04:23.957Z,2.45
2022-09-23T11:07:09.737Z,0.70
2022-09-23T11:10:28.954Z,0.50
2022-09-23T11:13:31.980Z,0.30
2022-09-23T11:16:14.467Z,0.60
2022-09-23T11:18:49.885Z,0.55
2022-09-23T11:21:28.639Z,0.40
2022-09-23T11:24:18.366Z,0.40
2022-09-23T11:27:36.255Z,0.45
2022-09-23T11:30:13.243Z,0.35
2022-09-23T11:32:48.278Z,0.40
2022-09-23T11:35:20.770Z,0.50
2022-09-23T11:37:53.248Z,0.55
2022-09-23T11:40:24.138Z,0.40
2022-09-23T11:43:02.529Z,0.55
2022-09-23T11:45:36.791Z,0.40
2022-09-23T11:48:09.901Z,0.63
2022-09-23T11:51:00.788Z,0.40
2022-09-23T11:53:58.781Z,0.70
2022-09-23T11:56:38.001Z,0.38
2022-09-23T11:59:12.101Z,1.23
2022-09-23T12:01:45.977Z,0.70
2022-09-23T12:04:34.386Z,0.70
2022-09-23T12:07:06.304Z,0.40
2022-09-23T12:12:59.516Z,0.35
2022-09-23T12:15:42.265Z,0.40
2022-09-23T12:18:27.706Z,0.30
2022-09-23T12:21:49.148Z,0.40
2022-09-23T12:24:56.467Z,0.55
2022-09-23T12:27:25.296Z,1.00
2022-09-23T12:29:57.035Z,0.20
2022-09-23T12:32:25.169Z,0.40
2022-09-23T12:34:53.589Z,0.40
2022-09-23T12:37:34.786Z,0.30
2022-09-23T12:40:30.359Z,0.67
2022-09-23T12:42:59.291Z,0.30
2022-09-23T12:45:32.712Z,0.40
2022-09-23T12:48:03.220Z,0.40
2022-09-23T12:50:51.138Z,0.45
2022-09-23T12:53:54.279Z,0.40
2022-09-23T12:56:30.012Z,0.30
2022-09-23T12:59:21.209Z,0.60
2022-09-23T13:01:48.278Z,0.50
2022-09-23T13:04:52.588Z,0.43
2022-09-23T13:07:26.021Z,0.30
2022-09-23T13:09:58.992Z,0.40
2022-09-23T13:12:31.234Z,0.45
2022-09-23T13:15:03.567Z,0.45
2022-09-23T13:17:38.370Z,0.73
2022-09-23T13:20:19.967Z,0.60
2022-09-23T13:22:49.930Z,0.50
2022-09-23T13:25:20.720Z,0.50
2022-09-23T13:28:00.814Z,0.30
2022-09-23T13:30:28.452Z,0.32
2022-09-23T13:33:17.472Z,0.50
2022-09-23T13:35:48.648Z,0.30
2022-09-23T13:38:26.579Z,0.43
2022-09-23T13:41:01.201Z,0.50
2022-09-23T13:43:31.694Z,0.60
2022-09-23T13:45:59.445Z,0.25
2022-09-23T13:48:28.226Z,0.40
2022-09-23T13:50:56.182Z,0.40
2022-09-23T13:53:30.548Z,0.30
2022-09-23T13:56:16.115Z,0.50
2022-09-23T13:58:43.627Z,0.40
2022-09-23T14:01:34.926Z,0.40
2022-09-23T14:04:04.896Z,0.40
2022-09-23T14:06:32.237Z,0.55
2022-09-23T14:09:01.566Z,0.90
2022-09-23T14:11:35.641Z,0.60
2022-09-23T14:14:07.370Z,0.60
2022-09-23T14:16:38.177Z,0.70
2022-09-23T14:19:06.723Z,0.80
2022-09-23T14:21:35.789Z,1.50
2022-09-23T14:24:32.319Z,1.10
2022-09-23T14:27:32.109Z,4.55
2022-09-23T14:30:00.400Z,1.40
2022-09-23T14:32:29.518Z,6.53
2022-09-23T14:35:06.720Z,2.15
2022-09-23T14:37:54.966Z,1.30
2022-09-23T14:40:36.376Z,1.58
2022-09-23T14:43:23.281Z,1.77
2022-09-23T14:45:53.492Z,2.00
2022-09-23T14:48:28.984Z,2.38
2022-09-23T14:51:01.169Z,2.60
2022-09-23T14:53:35.557Z,2.17
2022-09-23T14:56:11.080Z,5.45
2022-09-23T14:58:57.715Z,1.13
2022-09-23T15:01:31.217Z,1.20
2022-09-23T15:04:10.568Z,1.75
2022-09-23T15:06:38.978Z,1.10
2022-09-23T15:09:07.502Z,0.95
2022-09-23T15:11:36.195Z,0.80
2022-09-23T15:14:33.088Z,0.85
2022-09-23T15:16:53.243Z,1.10
2022-09-23T15:19:20.719Z,1.23
2022-09-23T15:21:51.807Z,1.42
2022-09-23T15:24:41.609Z,1.27
2022-09-23T15:27:28.785Z,1.17
2022-09-23T15:29:59.226Z,0.80
2022-09-23T15:32:26.217Z,1.20
2022-09-23T15:34:53.153Z,0.90
2022-09-23T15:37:20.137Z,0.98
2022-09-23T15:39:49.200Z,0.98
2022-09-23T15:42:18.274Z,0.90
2022-09-23T15:44:45.187Z,1.20
2022-09-23T15:47:17.251Z,1.50
2022-09-23T15:52:15.282Z,1.52
2022-09-23T15:54:43.850Z,1.55
2022-09-23T15:57:11.248Z,3.08
2022-09-23T15:59:38.236Z,3.80
2022-09-23T16:02:13.524Z,3.83
2022-09-23T16:04:40.646Z,3.60
2022-09-23T16:07:12.436Z,3.13
2022-09-23T16:09:39.384Z,3.63
2022-09-23T16:12:09.743Z,3.33
2022-09-23T16:14:36.770Z,3.08
2022-09-23T16:17:05.203Z,2.97
2022-09-23T16:19:34.258Z,2.80
2022-09-23T16:22:01.285Z,2.78
2022-09-23T16:24:29.278Z,2.42
2022-09-23T16:26:59.946Z,2.60
2022-09-23T16:29:27.665Z,2.88
2022-09-23T16:31:55.752Z,2.75
2022-09-23T16:34:23.004Z,3.10
2022-09-23T16:36:50.190Z,2.83
2022-09-23T16:39:18.375Z,3.53
2022-09-23T16:41:45.336Z,5.28
2022-09-23T16:44:12.733Z,5.07
2022-09-23T16:46:42.839Z,5.65
2022-09-23T16:49:13.598Z,5.20
2022-09-23T16:51:40.632Z,4.90
2022-09-23T16:54:12.193Z,3.78
2022-09-23T16:56:45.077Z,5.38
2022-09-23T16:59:13.375Z,6.60
2022-09-23T17:01:58.928Z,5.47
2022-09-23T17:04:27.672Z,7.72
2022-09-23T17:06:56.043Z,8.25
2022-09-23T17:09:26.307Z,8.90
2022-09-23T17:12:16.649Z,7.22
2022-09-23T17:14:43.814Z,6.05
2022-09-23T17:17:10.816Z,5.07
2022-09-23T17:19:38.260Z,6.43
2022-09-23T17:22:05.279Z,7.90
2022-09-23T17:24:32.205Z,8.25
2022-09-23T17:26:59.212Z,8.05
2022-09-23T17:29:27.044Z,7.95
2022-09-23T17:31:54.408Z,7.70
2022-09-23T17:34:21.350Z,10.50
2022-09-23T17:36:48.400Z,7.78
2022-09-23T17:39:15.386Z,8.93
2022-09-23T17:41:42.299Z,7.60
2022-09-23T17:44:11.447Z,8.88
2022-09-23T17:46:38.366Z,14.35
2022-09-23T17:49:06.857Z,12.98
2022-09-23T17:51:33.985Z,14.07
2022-09-23T17:54:01.624Z,15.23
2022-09-23T17:56:30.784Z,12.07
2022-09-23T17:59:02.041Z,9.05
2022-09-23T18:01:29.584Z,10.70
2022-09-23T18:04:01.853Z,10.45
2022-09-23T18:06:35.866Z,11.77
2022-09-23T18:09:06.293Z,14.82
2022-09-23T18:11:40.783Z,12.07
2022-09-23T18:14:16.496Z,14.75
2022-09-23T18:16:48.212Z,16.00
2022-09-23T18:19:22.971Z,15.20
2022-09-23T18:21:56.533Z,16.27
2022-09-23T18:24:33.171Z,16.02
2022-09-23T18:27:01.586Z,15.73
2022-09-23T18:29:28.740Z,16.05
2022-09-23T18:31:56.408Z,12.15
2022-09-23T18:34:23.720Z,16.70
2022-09-23T18:36:50.712Z,14.98
2022-09-23T18:39:17.801Z,12.65
2022-09-23T18:41:44.863Z,11.93
2022-09-23T18:44:11.940Z,17.58
2022-09-23T18:46:38.923Z,16.80
2022-09-23T18:49:24.538Z,15.55
2022-09-23T18:51:55.857Z,17.25
2022-09-23T18:54:24.386Z,18.13
2022-09-23T18:56:52.946Z,18.67
2022-09-23T18:59:25.039Z,17.10
2022-09-23T19:04:20.667Z,15.88
2022-09-23T19:06:48.524Z,34.05
2022-09-23T19:09:16.414Z,34.25
2022-09-23T19:11:44.497Z,30.75
2022-09-23T19:14:12.279Z,28.55
2022-09-23T19:16:40.341Z,24.77
2022-09-23T19:19:07.857Z,32.05
2022-09-23T19:21:35.280Z,31.55
2022-09-23T19:24:05.312Z,29.13
2022-09-23T19:26:36.799Z,27.60
2022-09-23T19:29:05.698Z,22.95
2022-09-23T19:31:35.203Z,21.05
2022-09-23T19:34:10.772Z,20.63
2022-09-23T19:36:40.678Z,25.15
2022-09-23T19:39:11.956Z,28.77
2022-09-23T19:41:39.075Z,27.65
2022-09-23T19:44:07.886Z,25.52
2022-09-23T19:46:39.654Z,21.20
2022-09-23T19:49:07.667Z,17.30
2022-09-23T19:51:35.165Z,18.55
2022-09-23T19:54:03.708Z,20.95
2022-09-23T19:56:31.191Z,23.35
2022-09-23T19:58:58.950Z,22.05
2022-09-23T20:01:27.767Z,19.58
2022-09-23T20:03:54.987Z,19.63
2022-09-23T20:06:22.415Z,19.50
2022-09-23T20:08:50.095Z,23.42
2022-09-23T20:11:19.498Z,24.13
2022-09-23T20:13:47.607Z,20.95
2022-09-23T20:16:20.895Z,20.13
2022-09-23T20:18:51.998Z,25.55
2022-09-23T20:21:19.859Z,22.23
2022-09-23T20:23:46.819Z,24.05
2022-09-23T20:26:32.711Z,30.25
2022-09-23T20:29:01.490Z,31.15
2022-09-23T20:31:28.792Z,28.48
2022-09-23T20:34:00.325Z,30.67
2022-09-23T20:36:28.840Z,35.20
2022-09-23T20:38:56.845Z,36.60
2022-09-23T20:41:23.854Z,41.88
2022-09-23T20:43:54.457Z,44.78
2022-09-23T20:46:24.699Z,43.22
2022-09-23T20:48:52.181Z,39.30
2022-09-23T20:51:19.057Z,39.05
2022-09-23T20:53:50.806Z,39.85
2022-09-23T20:56:19.896Z,42.92
2022-09-23T20:58:48.532Z,43.83
2022-09-23T21:01:16.274Z,44.78
2022-09-23T21:03:44.690Z,43.65
2022-09-23T21:06:14.153Z,40.33
2022-09-23T21:08:41.702Z,41.05
2022-09-23T21:11:11.967Z,41.63
2022-09-23T21:13:39.604Z,37.83
2022-09-23T21:16:09.970Z,39.38
2022-09-23T21:18:38.031Z,34.83
2022-09-23T21:21:06.130Z,31.17
2022-09-23T21:23:41.175Z,35.75
2022-09-23T21:26:13.116Z,32.33
2022-09-23T21:28:41.927Z,36.97
2022-09-23T21:31:17.719Z,36.83
2022-09-23T21:33:44.695Z,38.75
2022-09-23T21:36:11.704Z,44.75
2022-09-23T21:38:39.172Z,48.78
2022-09-23T21:41:07.820Z,42.05
2022-09-23T21:43:38.535Z,42.25
2022-09-23T21:46:07.762Z,36.08
2022-09-23T21:48:36.643Z,36.90
2022-09-23T21:51:06.709Z,36.80
2022-09-23T21:53:36.477Z,39.92
2022-09-23T21:56:04.646Z,42.17
2022-09-23T21:58:32.392Z,42.42
2022-09-23T22:00:59.564Z,39.83
2022-09-23T22:03:27.227Z,43.20
2022-09-23T22:06:07.726Z,44.42
2022-09-23T22:08:37.132Z,44.35
2022-09-23T22:11:06.605Z,43.22
2022-09-23T22:13:33.750Z,42.92
2022-09-23T22:16:03.951Z,34.47
2022-09-23T22:18:31.315Z,35.97
2022-09-23T22:20:59.155Z,28.45
2022-09-23T22:23:26.276Z,35.65
2022-09-23T22:26:02.820Z,37.38
2022-09-23T22:28:51.363Z,37.22
2022-09-23T22:31:36.761Z,39.15
2022-09-23T22:34:03.872Z,36.85
2022-09-23T22:36:30.895Z,44.83
2022-09-23T22:39:00.669Z,39.83
2022-09-23T22:41:27.621Z,42.35
2022-09-23T22:43:54.557Z,43.00
2022-09-23T22:46:25.295Z,42.38
2022-09-23T22:48:53.352Z,40.78
2022-09-23T22:51:22.350Z,42.35
2022-09-23T22:53:49.612Z,35.25
2022-09-23T22:56:16.586Z,30.15
2022-09-23T22:58:43.917Z,32.70
2022-09-23T23:01:11.868Z,25.55
2022-09-23T23:03:40.587Z,25.70
2022-09-23T23:06:09.782Z,27.50
2022-09-23T23:08:37.576Z,30.95
2022-09-23T23:11:10.064Z,28.52
2022-09-23T23:13:41.883Z,30.77
2022-09-23T23:16:11.840Z,39.08
2022-09-23T23:18:41.254Z,42.75
2022-09-23T23:21:10.465Z,44.83
2022-09-23T23:23:42.457Z,45.83
2022-09-23T23:28:37.026Z,38.58
2022-09-23T23:31:05.591Z,41.38
2022-09-23T23:33:32.763Z,42.08
2022-09-23T23:35:59.700Z,46.80
2022-09-23T23:38:27.315Z,41.58
2022-09-23T23:40:55.586Z,39.72
2022-09-23T23:43:23.850Z,41.50
2022-09-23T23:45:51.589Z,43.00
2022-09-23T23:48:19.925Z,57.28
2022-09-23T23:50:57.544Z,44.70
2022-09-23T23:53:26.667Z,47.50
2022-09-23T23:55:53.565Z,55.70
2022-09-23T23:58:20.679Z,55.00
